Home   Weather   Poland   Warsaw   Past weeks
Flag for Poland

Past Weather in Warsaw, Poland — Yesterday and Last 2 Weeks

Currently: 70 °F. Passing clouds. (Weather station: Warsaw Okecie Airport, Poland). See more current weather

Past Weather in Warsaw — Graph

°F

Warsaw Temperature Yesterday

Maximum temperature yesterday: 79 °F (at 4:00 pm)
Minimum temperature yesterday: 61 °F (at 4:00 am)
Average temperature yesterday: 70 °F

High & Low Weather Summary for the Past Weeks

 TemperatureHumidityPressure
High95 °F (Jun 30, 3:30 pm)100% (Jun 20, 9:00 pm)30.21 "Hg (Jun 20, 9:00 pm)
Low48 °F (Jun 22, 3:30 am)30% (Jul 1, 4:00 pm)29.68 "Hg (Jun 20, 5:30 pm)
Average72 °F64%29.97 "Hg
* Reported Jun 19 7:00 am — Jul 4 7:00 am, Warsaw. Weather by CustomWeather, © 2022

Note: Actual official high and low records may vary slightly from our data, if they occured in-between our weather recording intervals... More about our weather records

Warsaw Weather History for the Previous 24 Hours

Scroll right to see more
 ConditionsComfort  
Time TempWeatherWind HumidityBarometerVisibility
7:00 am
Mon, Jul 4
68 °FSunny.No wind83%30.04 "Hg10 mi
6:30 am64 °FSunny.1 mph94%30.04 "Hg10 mi
6:00 am63 °FSunny.2 mph100%30.04 "Hg10 mi
5:30 am61 °FFog.2 mph100%30.04 "HgN/A
5:00 am61 °FFog.3 mph94%30.04 "HgN/A
4:30 am61 °FLight fog.2 mph94%30.04 "Hg4 mi
4:00 am61 °FFog.3 mph100%30.04 "Hg6 mi
3:00 am61 °FClear.5 mph100%30.04 "Hg10 mi
1:30 am64 °FClear.5 mph88%30.07 "Hg10 mi
1:00 am64 °FClear.3 mph88%30.07 "Hg10 mi
12:30 am64 °FClear.3 mph88%30.07 "Hg10 mi
12:00 am64 °FClear.3 mph94%30.07 "Hg10 mi
11:00 pm
Sun, Jul 3
66 °FClear.2 mph83%30.07 "Hg10 mi
10:30 pm68 °FClear.5 mph78%30.07 "Hg10 mi
10:00 pm68 °FClear.3 mph78%30.07 "Hg10 mi
9:00 pm72 °FClear.8 mph65%30.07 "Hg10 mi
8:30 pm72 °FSunny.8 mph69%30.07 "Hg10 mi
8:00 pm73 °FSunny.9 mph65%30.07 "Hg10 mi
7:00 pm73 °FSunny.9 mph65%30.07 "Hg10 mi
6:30 pm73 °FSunny.8 mph61%30.07 "Hg10 mi
6:00 pm75 °FSunny.10 mph61%30.07 "Hg10 mi
5:30 pm75 °FSunny.9 mph57%30.07 "Hg10 mi
5:00 pm75 °FSunny.14 mph57%30.07 "Hg10 mi
4:30 pm79 °FSunny.5 mph45%30.09 "Hg10 mi
4:00 pm79 °FPassing clouds.5 mph45%30.09 "HgN/A
3:30 pm77 °FPassing clouds.6 mph44%30.09 "HgN/A
3:00 pm77 °FPassing clouds.6 mph44%30.09 "HgN/A
2:30 pm77 °FPassing clouds.6 mph44%30.12 "HgN/A
2:00 pm75 °FSunny.7 mph44%30.12 "Hg10 mi
1:00 pm75 °FSunny.3 mph47%30.12 "Hg10 mi
12:30 pm75 °FPassing clouds.7 mph44%30.15 "HgN/A
12:00 pm73 °FPassing clouds.6 mph44%30.15 "HgN/A
11:30 am72 °FPassing clouds.6 mph50%30.15 "HgN/A
11:00 am72 °FPassing clouds.6 mph50%30.15 "HgN/A
10:30 am70 °FPassing clouds.5 mph50%30.15 "HgN/A
10:00 am70 °FSunny.6 mph53%30.18 "Hg10 mi
9:30 am70 °FPassing clouds.9 mph50%30.18 "HgN/A
9:00 am68 °FPassing clouds.7 mph53%30.18 "HgN/A
8:30 am68 °FPassing clouds.7 mph60%30.18 "HgN/A
8:00 am66 °FSunny.8 mph60%30.18 "Hg10 mi
Weather by CustomWeather, © 2022

See weather overview